Time;durP1;ratioP1;P1;durP2;ratioP2;P2;SDS_P1;SDS_P2;PMS_P1;PMS_P2;Temp;Humidity;BMP_temperature;BMP_pressure;BME280_temperature;BME280_humidity;BME280_pressure;Samples;Min_cycle;Max_cycle;Signal;HPM_P1;HPM_P2
2022/11/03 00:00:59;;;;;;;3.22;1.35;;;;;;;-140.72;0.00;52802.78;5055488;28;20084;-72
2022/11/03 00:03:25;;;;;;;4.53;1.25;;;;;;;-140.72;0.00;52806.84;5058087;28;20021;-71
2022/11/03 00:06:06;;;;;;;5.28;1.20;;;;;;;-140.72;0.00;52810.91;5056161;28;20045;-72
2022/11/03 00:08:41;;;;;;;3.00;0.93;;;;;;;-140.72;0.00;52798.72;5056522;28;20017;-71
2022/11/03 00:11:07;;;;;;;4.13;1.05;;;;;;;-140.72;0.00;52786.56;5054946;28;20021;-71
2022/11/03 00:13:34;;;;;;;4.10;0.82;;;;;;;-140.72;0.00;52792.66;5051378;28;20025;-73
2022/11/03 00:15:59;;;;;;;2.60;1.00;;;;;;;-140.72;0.00;52831.19;5050943;28;20017;-72
2022/11/03 00:18:25;;;;;;;7.03;1.08;;;;;;;-140.72;0.00;52776.41;5029678;28;20071;-72
2022/11/03 00:21:03;;;;;;;2.78;0.95;;;;;;;-140.72;0.00;52780.47;5050585;28;20112;-73
2022/11/03 00:23:32;;;;;;;4.68;0.90;;;;;;;-140.72;0.00;52810.91;5051889;28;20107;-71
2022/11/03 00:26:06;;;;;;;4.47;1.25;;;;;;;-140.72;0.00;52817.00;5052003;28;20029;-73
2022/11/03 00:28:33;;;;;;;7.32;1.02;;;;;;;-140.72;0.00;52780.47;5051408;28;20108;-73
2022/11/03 00:31:00;;;;;;;2.28;1.13;;;;;;;-140.72;0.00;52808.88;5051418;28;20499;-72
2022/11/03 00:33:30;;;;;;;2.95;0.85;;;;;;;-140.72;0.00;52827.16;5051190;28;20025;-73
2022/11/03 00:35:57;;;;;;;4.07;1.33;;;;;;;-140.72;0.00;52808.88;5051048;28;20021;-71
2022/11/03 00:38:28;;;;;;;5.82;1.65;;;;;;;-140.72;0.00;52851.50;5051505;28;20104;-73
2022/11/03 00:40:55;;;;;;;6.32;1.20;;;;;;;-140.72;0.00;52817.00;5051671;28;20048;-72
2022/11/03 00:43:25;;;;;;;3.92;0.80;;;;;;;-140.72;0.00;52802.78;5051319;28;20096;-72
2022/11/03 00:45:51;;;;;;;;;;;;;;;-140.72;0.00;52796.72;5052033;28;20178;-71
2022/11/03 00:48:29;;;;;;;4.53;0.95;;;;;;;-140.72;0.00;52827.16;5051467;28;20390;-72
2022/11/03 00:51:19;;;;;;;4.53;0.93;;;;;;;-140.72;0.00;52814.97;5050308;28;20020;-73
2022/11/03 00:53:47;;;;;;;3.00;1.23;;;;;;;-140.72;0.00;52772.34;5039974;28;20120;-72
2022/11/03 00:56:17;;;;;;;2.60;1.00;;;;;;;-140.72;0.00;52849.47;5051349;28;20024;-74
2022/11/03 00:58:43;;;;;;;5.93;0.80;;;;;;;-140.72;0.00;52808.88;5050968;28;20108;-73
2022/11/03 01:01:17;;;;;;;2.92;0.93;;;;;;;-140.72;0.00;52821.06;5051827;28;20115;-71
2022/11/03 01:06:48;;;;;;;3.20;0.82;;;;;;;-140.72;0.00;52806.84;5050332;28;20084;-71
2022/11/03 01:06:51;;;;;;;4.95;1.30;;;;;;;-140.72;7.98;52790.63;5050827;28;20977;-71
2022/11/03 01:09:19;;;;;;;5.68;1.10;;;;;;;-140.72;31.46;52792.66;5043948;28;20056;-72
2022/11/03 01:11:59;;;;;;;5.18;1.60;;;;;;;-140.72;53.24;52845.41;5046557;28;20957;-71
2022/11/03 01:14:31;;;;;;;5.53;1.02;;;;;;;-140.72;77.16;52788.59;5051587;28;20226;-72
2022/11/03 01:16:56;;;;;;;5.47;1.27;;;;;;;-140.72;100.00;52827.16;5050774;28;20526;-72
2022/11/03 01:19:24;;;;;;;4.13;1.17;;;;;;;-140.72;100.00;52821.06;5046954;28;20371;-72
2022/11/03 01:21:49;;;;;;;3.13;0.82;;;;;;;-140.72;100.00;52827.16;5050419;28;20025;-72
2022/11/03 01:24:15;;;;;;;8.80;1.45;;;;;;;-140.72;100.00;52817.00;5044995;28;20029;-72
2022/11/03 01:26:40;;;;;;;2.92;0.93;;;;;;;-140.72;100.00;52827.16;5049524;28;20466;-71
2022/11/03 01:29:06;;;;;;;4.80;1.40;;;;;;;-140.72;100.00;52806.84;5049502;28;20025;-72
2022/11/03 01:31:31;;;;;;;8.00;0.85;;;;;;;-140.72;100.00;52845.41;5049594;28;20025;-71
2022/11/03 01:33:57;;;;;;;2.40;1.08;;;;;;;-140.72;100.00;52817.00;5050048;28;20481;-72
2022/11/03 01:36:23;;;;;;;6.72;1.30;;;;;;;-140.72;100.00;52798.72;5050548;28;20071;-73
2022/11/03 01:38:48;;;;;;;4.47;1.27;;;;;;;-140.72;100.00;52831.19;5035408;28;20036;-71
2022/11/03 01:41:19;;;;;;;2.42;0.85;;;;;;;-140.72;100.00;52802.78;5050108;28;20021;-72
2022/11/03 01:44:08;;;;;;;5.25;0.93;;;;;;;-140.72;100.00;52792.66;5050159;28;20029;-72
2022/11/03 01:46:48;;;;;;;4.83;1.20;;;;;;;-140.72;100.00;52804.81;5017886;28;20048;-72
2022/11/03 01:49:16;;;;;;;;;;;;;;;-140.72;100.00;52835.25;5049901;28;20036;-71
2022/11/03 01:51:46;;;;;;;3.58;1.15;;;;;;;-140.72;100.00;52814.97;5050040;28;19920;-72
2022/11/03 01:54:17;;;;;;;1.48;0.75;;;;;;;-140.72;100.00;52865.69;5049299;28;20029;-71
2022/11/03 01:56:46;;;;;;;3.58;1.00;;;;;;;-140.72;100.00;52841.34;5049984;28;20316;-71
2022/11/03 01:59:15;;;;;;;4.43;1.45;;;;;;;-140.72;100.00;52788.59;5049569;28;20119;-71
2022/11/03 02:01:42;;;;;;;3.15;0.80;;;;;;;-140.72;100.00;52821.06;5043009;28;20108;-73
2022/11/03 02:04:12;;;;;;;6.25;1.50;;;;;;;-140.72;100.00;52812.94;5042756;28;20035;-71
2022/11/03 02:06:38;;;;;;;3.83;1.10;;;;;;;-140.72;100.00;52819.03;5047651;28;20039;-72
2022/11/03 02:09:06;;;;;;;3.15;1.10;;;;;;;-140.72;100.00;52829.19;5049562;28;20025;-72
2022/11/03 02:14:16;;;;;;;2.53;0.47;;;;;;;-140.72;100.00;52837.28;5045395;28;20056;-71
2022/11/03 02:16:48;;;;;;;6.00;1.65;;;;;;;-140.72;100.00;52794.69;5049278;28;20025;-72
2022/11/03 02:19:52;;;;;;;5.10;1.20;;;;;;;-140.72;100.00;52835.25;5048650;28;20040;-72
2022/11/03 02:22:39;;;;;;;3.03;0.93;;;;;;;-140.72;100.00;52841.34;5044111;28;20036;-71
2022/11/03 02:25:18;;;;;;;8.35;1.23;;;;;;;-140.72;100.00;52792.66;5049294;28;20106;-71
2022/11/03 02:27:44;;;;;;;11.60;1.13;;;;;;;-140.72;100.00;52770.31;5044963;28;20020;-72
2022/11/03 02:30:10;;;;;;;6.60;1.48;;;;;;;-140.72;100.00;52814.97;5048536;28;20029;-72
2022/11/03 02:33:03;;;;;;;3.58;1.10;;;;;;;-140.72;100.00;52825.13;5049232;28;20474;-73
2022/11/03 02:35:41;;;;;;;6.57;0.80;;;;;;;-140.72;100.00;52812.94;5048589;28;20100;-71
2022/11/03 02:38:11;;;;;;;1.88;1.00;;;;;;;-140.72;100.00;52861.66;5049530;28;20115;-71
2022/11/03 02:40:45;;;;;;;6.53;0.95;;;;;;;-140.72;100.00;52786.56;5049087;28;20043;-73
2022/11/03 02:43:13;;;;;;;5.18;1.48;;;;;;;-140.72;100.00;52792.66;5044525;28;20021;-72
2022/11/03 02:45:38;;;;;;;6.00;1.25;;;;;;;-140.72;100.00;52821.06;5048568;28;20041;-73
2022/11/03 02:48:05;;;;;;;3.03;1.08;;;;;;;-140.72;100.00;52825.13;5048763;28;20478;-72
2022/11/03 02:50:32;;;;;;;4.28;1.10;;;;;;;-140.72;100.00;52837.28;5048502;28;20047;-73
2022/11/03 02:52:58;;;;;;;4.55;1.27;;;;;;;-140.72;100.00;52804.81;5048735;28;20032;-72
2022/11/03 02:55:34;;;;;;;3.42;1.25;;;;;;;-140.72;100.00;52794.69;5049319;28;20032;-74
2022/11/03 02:58:21;;;;;;;9.35;1.48;;;;;;;-140.72;100.00;52788.59;5048535;28;20024;-71
2022/11/03 03:00:58;;;;;;;9.38;1.08;;;;;;;-140.72;100.00;52760.19;5048895;28;20033;-71
2022/11/03 03:03:39;;;;;;;2.78;1.10;;;;;;;-140.72;100.00;52790.63;5048591;28;20048;-71
2022/11/03 03:06:12;;;;;;;6.97;1.25;;;;;;;-140.72;100.00;52808.88;5048465;28;20346;-72
2022/11/03 03:08:45;;;;;;;5.63;1.05;;;;;;;-140.72;100.00;52798.72;5048569;28;20125;-72
2022/11/03 03:11:13;;;;;;;1.45;0.93;;;;;;;-140.72;100.00;52812.94;5047728;28;20111;-73
2022/11/03 03:13:41;;;;;;;7.78;1.02;;;;;;;-140.72;100.00;52825.13;5048763;28;20052;-72
2022/11/03 03:16:23;;;;;;;3.40;0.82;;;;;;;-140.72;100.00;52825.13;5048611;28;20033;-72
2022/11/03 03:18:51;;;;;;;9.30;1.25;;;;;;;-140.72;100.00;52808.88;5047319;28;20057;-72
2022/11/03 03:21:28;;;;;;;4.10;1.50;;;;;;;-140.72;100.00;52800.75;5048399;28;20043;-71
2022/11/03 03:23:59;;;;;;;8.35;1.17;;;;;;;-140.72;100.00;52804.81;5047761;28;20021;-72
2022/11/03 03:26:31;;;;;;;1.60;0.95;;;;;;;-140.72;100.00;52823.09;5048458;28;20425;-71
2022/11/03 03:29:10;;;;;;;2.63;1.15;;;;;;;-140.72;100.00;52833.22;5048180;28;20069;-72
2022/11/03 03:31:39;;;;;;;1.60;1.07;;;;;;;-140.72;100.00;52837.28;5049894;28;20111;-72
2022/11/03 03:34:06;;;;;;;5.10;1.23;;;;;;;-140.72;100.00;52800.75;5047806;28;20553;-71
2022/11/03 03:36:34;;;;;;;3.88;1.33;;;;;;;-140.72;100.00;52819.03;5044091;28;20030;-72
2022/11/03 03:39:03;;;;;;;3.97;1.20;;;;;;;-140.72;100.00;52849.47;5044896;28;20256;-71
2022/11/03 03:41:31;;;;;;;3.97;1.00;;;;;;;-140.72;100.00;52831.19;5052157;28;20029;-72
2022/11/03 03:44:01;;;;;;;3.42;1.15;;;;;;;-140.72;100.00;52849.47;5043636;28;20362;-72
2022/11/03 03:46:33;;;;;;;1.65;0.80;;;;;;;-140.72;100.00;52810.91;5052503;28;20054;-71
2022/11/03 03:48:59;;;;;;;2.58;1.20;;;;;;;-140.72;100.00;52800.75;5052304;28;20045;-73
2022/11/03 03:51:27;;;;;;;4.88;1.30;;;;;;;-140.72;100.00;52835.25;5044804;28;20434;-71
2022/11/03 03:53:53;;;;;;;2.75;0.98;;;;;;;-140.72;100.00;52823.09;5038487;28;20053;-71
2022/11/03 03:56:24;;;;;;;6.68;1.65;;;;;;;-140.72;100.00;52823.09;5052417;28;20044;-73
2022/11/03 03:58:51;;;;;;;4.82;1.33;;;;;;;-140.72;100.00;52812.94;5048051;28;20585;-72
2022/11/03 04:01:16;;;;;;;6.57;1.50;;;;;;;-140.72;100.00;52817.00;5050969;28;20056;-73
2022/11/03 04:03:42;;;;;;;5.47;1.65;;;;;;;-140.72;100.00;52812.94;5052129;28;20037;-71
2022/11/03 04:06:08;;;;;;;8.75;1.83;;;;;;;-140.72;100.00;52814.97;5033797;28;20460;-73
2022/11/03 04:08:33;;;;;;;4.45;1.23;;;;;;;-140.72;100.00;52790.63;5046748;28;20527;-72
2022/11/03 04:24:38;;;;;;;2.42;0.73;;;;;;;-140.72;100.00;52821.06;5052125;28;20040;-71
2022/11/03 04:27:27;;;;;;;3.08;1.08;;;;;;;-140.72;100.00;52817.00;5051072;28;20037;-72
2022/11/03 04:29:58;;;;;;;3.97;1.20;;;;;;;-140.72;100.00;52798.72;5051727;28;20041;-71
2022/11/03 04:32:24;;;;;;;2.88;0.90;;;;;;;-140.72;100.00;52800.75;5052015;28;20025;-71
2022/11/03 04:34:50;;;;;;;4.40;1.15;;;;;;;-140.72;100.00;52812.94;5050972;28;20044;-71
2022/11/03 04:37:15;;;;;;;3.47;1.30;;;;;;;-140.72;100.00;52833.22;5051466;28;20060;-70
2022/11/03 04:39:41;;;;;;;6.15;1.05;;;;;;;-140.72;100.00;52821.06;5051194;28;20036;-71
2022/11/03 04:42:16;;;;;;;1.65;0.65;;;;;;;-140.72;100.00;52831.19;5050714;28;20099;-72
2022/11/03 04:44:45;;;;;;;5.22;1.73;;;;;;;-140.72;100.00;52841.34;5051200;28;20428;-72
2022/11/03 04:47:12;;;;;;;4.70;1.30;;;;;;;-140.72;100.00;52855.56;5051741;28;20149;-71
2022/11/03 04:49:37;;;;;;;2.88;1.10;;;;;;;-140.72;100.00;52843.38;5050211;28;20086;-70
2022/11/03 04:52:12;;;;;;;3.65;1.55;;;;;;;-140.72;100.00;52806.84;5051143;28;20025;-73
2022/11/03 04:54:38;;;;;;;3.05;1.42;;;;;;;-140.72;100.00;52849.47;5050332;28;20024;-73
2022/11/03 04:57:13;;;;;;;1.23;0.75;;;;;;;-140.72;100.00;52800.75;5049918;28;20124;-71
2022/11/03 04:59:40;;;;;;;2.38;1.00;;;;;;;-140.72;100.00;52774.38;5050528;28;20120;-72
2022/11/03 05:02:12;;;;;;;1.73;0.90;;;;;;;-140.72;100.00;52819.03;5045649;28;20103;-72
2022/11/03 05:04:37;;;;;;;1.80;0.98;;;;;;;-140.72;100.00;52796.72;5050682;28;20086;-72
2022/11/03 05:07:19;;;;;;;10.25;1.67;;;;;;;-140.72;100.00;52855.56;5051076;28;20037;-72
2022/11/03 05:09:44;;;;;;;3.42;1.05;;;;;;;-140.72;100.00;52821.06;5049123;28;20108;-71
2022/11/03 05:12:09;;;;;;;15.73;2.08;;;;;;;-140.72;100.00;52833.22;5051377;28;20505;-71
2022/11/03 05:14:36;;;;;;;4.53;1.35;;;;;;;-140.72;100.00;52863.66;5050493;28;20025;-72
2022/11/03 05:17:01;;;;;;;2.10;1.00;;;;;;;-140.72;100.00;52833.22;5050606;28;20021;-71
2022/11/03 05:19:34;;;;;;;3.05;1.33;;;;;;;-140.72;100.00;52857.59;5050855;28;20470;-71
2022/11/03 05:22:02;;;;;;;5.70;1.30;;;;;;;-140.72;100.00;52810.91;5051675;28;20028;-71
2022/11/03 05:24:28;;;;;;;6.60;1.90;;;;;;;-140.72;100.00;52849.47;5050095;28;20037;-72
2022/11/03 05:26:56;;;;;;;6.85;1.55;;;;;;;-140.72;100.00;52853.53;5032367;28;20039;-72
2022/11/03 05:29:27;;;;;;;5.38;1.20;;;;;;;-140.72;100.00;52835.25;5049922;28;20017;-71
2022/11/03 05:31:55;;;;;;;3.60;0.70;;;;;;;-140.72;100.00;52855.56;5049587;28;20021;-72
2022/11/03 05:34:29;;;;;;;2.70;1.05;;;;;;;-140.72;100.00;52802.78;5050288;28;20028;-71
2022/11/03 05:36:57;;;;;;;4.55;1.23;;;;;;;-140.72;100.00;52861.66;5050067;28;20032;-71
2022/11/03 05:39:28;;;;;;;4.72;1.17;;;;;;;-140.72;100.00;52833.22;5049422;28;20029;-70
2022/11/03 05:41:55;;;;;;;1.92;0.88;;;;;;;-140.72;100.00;52784.53;5047610;28;20025;-71
2022/11/03 05:44:33;;;;;;;5.22;1.58;;;;;;;-140.72;100.00;52823.09;5040360;28;20029;-71
2022/11/03 05:47:00;;;;;;;1.40;1.00;;;;;;;-140.72;100.00;52825.13;5049361;28;20028;-71
2022/11/03 05:49:27;;;;;;;6.50;1.33;;;;;;;-140.72;100.00;52796.72;5049646;28;20059;-72
2022/11/03 05:51:52;;;;;;;6.07;1.27;;;;;;;-140.72;100.00;52829.19;5048463;28;20029;-73
2022/11/03 05:54:27;;;;;;;5.07;1.38;;;;;;;-140.72;100.00;52817.00;5047938;28;20157;-71
2022/11/03 05:56:55;;;;;;;2.15;1.17;;;;;;;-140.72;100.00;52778.44;5048784;28;20047;-72
2022/11/03 05:59:28;;;;;;;4.10;1.42;;;;;;;-140.72;100.00;52821.06;5048463;28;20120;-71
2022/11/03 06:01:57;;;;;;;2.35;1.05;;;;;;;-140.72;100.00;52784.53;5049145;28;20025;-71
2022/11/03 06:04:35;;;;;;;6.10;1.45;;;;;;;-140.72;100.00;52831.19;5049693;28;20090;-71
2022/11/03 06:07:04;;;;;;;4.10;1.27;;;;;;;-140.72;100.00;52829.19;5049536;28;20044;-71
2022/11/03 06:09:32;;;;;;;8.02;1.33;;;;;;;-140.72;100.00;52778.44;5047210;28;20035;-72
2022/11/03 06:12:01;;;;;;;3.97;1.38;;;;;;;-140.72;100.00;52829.19;5049075;28;20021;-72
2022/11/03 06:14:29;;;;;;;4.40;1.25;;;;;;;-140.72;100.00;52823.09;5048691;28;20040;-71
2022/11/03 06:17:06;;;;;;;3.83;1.27;;;;;;;-140.72;100.00;52806.84;5041314;28;20030;-74
2022/11/03 06:19:38;;;;;;;3.45;1.33;;;;;;;-140.72;100.00;52845.41;5049037;28;20112;-72
2022/11/03 06:22:34;;;;;;;2.90;1.20;;;;;;;-140.72;100.00;52829.19;5050571;28;20435;-70
2022/11/03 06:25:22;;;;;;;5.07;1.85;;;;;;;-140.72;100.00;52817.00;5050138;28;20148;-71
2022/11/03 06:27:49;;;;;;;5.20;1.17;;;;;;;-140.72;100.00;52825.13;5049127;28;20028;-71
2022/11/03 06:30:44;;;;;;;7.18;1.92;;;;;;;-140.72;100.00;52825.13;5049538;28;20297;-70
2022/11/03 06:33:24;;;;;;;4.50;1.02;;;;;;;-140.72;100.00;52821.06;5041404;28;20048;-70
2022/11/03 06:35:52;;;;;;;;;;;;;;;-140.72;100.00;52845.41;5050772;28;20020;-71
2022/11/03 06:38:21;;;;;;;3.88;1.30;;;;;;;-140.72;100.00;52814.97;5054582;28;19938;-71
2022/11/03 06:40:50;;;;;;;2.20;0.88;;;;;;;-140.72;100.00;52825.13;5044871;28;20033;-70
2022/11/03 06:43:20;;;;;;;2.67;1.35;;;;;;;-140.72;100.00;52839.31;5048632;28;20367;-73
2022/11/03 06:45:51;;;;;;;3.35;1.30;;;;;;;-140.72;100.00;52833.22;5055439;28;20071;-71
2022/11/03 06:48:22;;;;;;;1.40;0.77;;;;;;;-140.72;100.00;52814.97;5051914;28;20505;-71
2022/11/03 06:50:48;;;;;;;5.57;1.42;;;;;;;-140.72;100.00;52794.69;5048795;28;20032;-71
2022/11/03 06:53:20;;;;;;;6.90;1.38;;;;;;;-140.72;100.00;52784.53;5049755;28;20021;-71
2022/11/03 06:55:47;;;;;;;4.53;0.93;;;;;;;-140.72;100.00;52792.66;5047625;28;20466;-71
2022/11/03 06:58:22;;;;;;;4.30;1.10;;;;;;;-140.72;100.00;52808.88;5048807;28;20112;-71
2022/11/03 07:00:48;;;;;;;3.15;1.05;;;;;;;-140.72;100.00;52837.28;5048170;28;20340;-71
2022/11/03 07:03:34;;;;;;;4.45;1.10;;;;;;;-140.72;100.00;52817.00;5046792;28;20557;-72
2022/11/03 07:06:23;;;;;;;1.60;0.82;;;;;;;-140.72;100.00;52788.59;5048146;28;20029;-71
2022/11/03 07:08:57;;;;;;;5.95;1.30;;;;;;;-140.72;100.00;52812.94;5048333;28;20029;-71
2022/11/03 07:11:29;;;;;;;2.78;1.25;;;;;;;-140.72;100.00;52837.28;5049396;28;20040;-72
2022/11/03 07:13:57;;;;;;;4.22;1.08;;;;;;;-140.72;100.00;52841.34;5049250;28;20021;-71
2022/11/03 07:16:30;;;;;;;4.18;0.70;;;;;;;-140.72;100.00;52796.72;5048568;28;20037;-71
2022/11/03 07:18:59;;;;;;;7.35;1.13;;;;;;;-140.72;100.00;52802.78;5049167;28;20369;-71
2022/11/03 07:21:38;;;;;;;5.40;1.02;;;;;;;-140.72;100.00;52774.38;5049383;28;20040;-71
2022/11/03 07:24:34;;;;;;;4.40;1.17;;;;;;;-140.72;100.00;52821.06;5048405;28;20102;-71
2022/11/03 07:27:21;;;;;;;6.32;1.05;;;;;;;-140.72;100.00;52782.50;5034737;28;20307;-71
2022/11/03 07:29:50;;;;;;;3.75;1.17;;;;;;;-140.72;100.00;52817.00;5048766;28;20032;-72
2022/11/03 07:32:19;;;;;;;4.72;1.25;;;;;;;-140.72;100.00;52817.00;5048781;28;20025;-71
2022/11/03 07:34:46;;;;;;;8.60;1.60;;;;;;;-140.72;100.00;52823.09;5048875;28;20044;-71
2022/11/03 07:37:24;;;;;;;7.15;1.60;;;;;;;-140.72;100.00;52825.13;5048295;28;20029;-71
2022/11/03 07:39:51;;;;;;;3.92;1.27;;;;;;;-140.72;100.00;52780.47;5048284;28;20068;-71
2022/11/03 07:42:22;;;;;;;6.53;1.48;;;;;;;-140.72;100.00;52804.81;5048945;28;20056;-72
2022/11/03 07:44:49;;;;;;;3.60;1.40;;;;;;;-140.72;100.00;52821.06;5048068;28;20067;-72
2022/11/03 07:47:27;;;;;;;3.03;1.02;;;;;;;-140.72;100.00;52780.47;5048881;28;20037;-71
2022/11/03 07:49:56;;;;;;;2.90;0.82;;;;;;;-140.72;100.00;52831.19;5048047;28;20090;-71
2022/11/03 07:52:23;;;;;;;3.42;1.17;;;;;;;-140.72;100.00;52853.53;5048936;28;20451;-72
2022/11/03 07:54:51;;;;;;;3.92;1.50;;;;;;;-140.72;100.00;52790.63;5048504;28;20037;-70
2022/11/03 07:57:25;;;;;;;2.83;1.20;;;;;;;-140.72;100.00;52837.28;5049293;28;20029;-69
2022/11/03 07:59:55;;;;;;;7.18;1.33;;;;;;;-140.72;100.00;52772.34;5047738;28;20028;-71
2022/11/03 08:02:25;;;;;;;2.78;1.08;;;;;;;-140.72;100.00;52782.50;5048928;28;20028;-70
2022/11/03 08:04:51;;;;;;;2.67;1.35;;;;;;;-140.72;100.00;52782.50;5047959;28;20093;-71
2022/11/03 08:07:16;;;;;;;2.47;0.65;;;;;;;-140.72;100.00;52764.25;5048403;28;20056;-71
2022/11/03 08:09:41;;;;;;;3.55;1.15;;;;;;;-140.72;100.00;52812.94;5048744;28;20370;-71
2022/11/03 08:12:07;;;;;;;4.78;1.25;;;;;;;-140.72;100.00;52814.97;5048102;28;20064;-71
2022/11/03 08:14:32;;;;;;;5.25;1.25;;;;;;;-140.72;100.00;52762.22;5048630;28;20021;-71
2022/11/03 08:16:58;;;;;;;3.03;1.08;;;;;;;-140.72;100.00;52833.22;5049435;28;20187;-72
2022/11/03 08:19:23;;;;;;;6.75;1.23;;;;;;;-140.72;100.00;52802.78;5051212;28;20028;-71
2022/11/03 08:21:48;;;;;;;4.18;1.42;;;;;;;-140.72;100.00;52825.13;5052117;28;20044;-70
2022/11/03 08:24:14;;;;;;;3.83;1.23;;;;;;;-140.72;100.00;52823.09;5052177;28;20260;-72
2022/11/03 08:26:39;;;;;;;3.15;1.27;;;;;;;-140.72;100.00;52776.41;5051545;28;20036;-72
2022/11/03 08:29:05;;;;;;;2.88;0.93;;;;;;;-140.72;100.00;52855.56;5052200;28;20033;-72
2022/11/03 08:31:30;;;;;;;7.18;1.52;;;;;;;-140.72;100.00;52790.63;5052145;28;20037;-71
2022/11/03 08:33:55;;;;;;;7.07;1.27;;;;;;;-140.72;100.00;52790.63;5050974;28;20028;-72
2022/11/03 08:36:21;;;;;;;3.47;1.23;;;;;;;-140.72;100.00;52774.38;5052386;28;20428;-71
2022/11/03 08:38:46;;;;;;;3.63;1.05;;;;;;;-140.72;100.00;52780.47;5052051;28;20057;-73
2022/11/03 08:41:11;;;;;;;2.75;0.88;;;;;;;-140.72;100.00;52741.91;5051581;28;20037;-71
2022/11/03 08:43:37;;;;;;;4.88;1.77;;;;;;;-140.72;100.00;52812.94;5051700;28;20033;-72
2022/11/03 08:46:02;;;;;;;6.82;1.83;;;;;;;-140.72;100.00;52776.41;5052434;28;20033;-72
2022/11/03 08:48:28;;;;;;;3.47;1.60;;;;;;;-140.72;100.00;52764.25;5051095;28;20049;-72
2022/11/03 08:50:54;;;;;;;3.80;1.38;;;;;;;-140.72;100.00;52792.66;5052087;28;20281;-72
2022/11/03 08:53:29;;;;;;;1.92;1.15;;;;;;;-140.72;100.00;52792.66;5051744;28;20033;-72
2022/11/03 08:55:55;;;;;;;5.60;1.27;;;;;;;-140.72;100.00;52756.13;5051212;28;20032;-72
2022/11/03 08:58:21;;;;;;;4.00;1.52;;;;;;;-140.72;100.00;52770.31;5051526;28;20169;-73
2022/11/03 09:00:52;;;;;;;4.68;1.15;;;;;;;-140.72;100.00;52766.25;5052245;28;20477;-74
2022/11/03 09:03:21;;;;;;;3.85;1.25;;;;;;;-140.72;100.00;52725.69;5034301;28;20040;-72
2022/11/03 09:05:47;;;;;;;2.63;0.93;;;;;;;-140.72;100.00;52760.19;5052491;28;20096;-71
2022/11/03 09:08:12;;;;;;;2.55;1.02;;;;;;;-140.72;100.00;52766.25;5051585;28;20064;-71
2022/11/03 09:10:38;;;;;;;7.70;1.38;;;;;;;-140.72;100.00;52780.47;5050384;28;20025;-71
2022/11/03 09:13:04;;;;;;;4.07;1.60;;;;;;;-140.72;100.00;52733.78;5051080;28;20033;-71
2022/11/03 09:15:30;;;;;;;6.78;1.58;;;;;;;-140.72;100.00;52778.44;5051130;28;20037;-72
2022/11/03 09:17:55;;;;;;;1.90;1.17;;;;;;;-140.72;100.00;52756.13;5051096;28;20374;-71
2022/11/03 09:20:21;;;;;;;3.22;1.30;;;;;;;-140.72;100.00;52794.69;5051656;28;20028;-71
2022/11/03 09:22:46;;;;;;;5.63;1.55;;;;;;;-140.72;100.00;52788.59;5050459;28;20028;-73
2022/11/03 09:25:12;;;;;;;1.80;0.80;;;;;;;-140.72;100.00;52756.13;5051348;28;20028;-73
2022/11/03 09:27:37;;;;;;;2.80;1.20;;;;;;;-140.72;100.00;52756.13;5050730;28;20496;-72
2022/11/03 09:30:04;;;;;;;4.18;1.15;;;;;;;-140.72;100.00;52735.81;5050616;28;20032;-71
2022/11/03 09:32:30;;;;;;;7.63;1.52;;;;;;;-140.72;100.00;52772.34;5051122;28;20024;-71
2022/11/03 09:34:55;;;;;;;7.15;1.58;;;;;;;-140.72;100.00;52711.47;5050758;28;20025;-73
2022/11/03 09:37:21;;;;;;;5.40;1.38;;;;;;;-140.72;100.00;52762.22;5050844;28;20036;-72
2022/11/03 09:39:47;;;;;;;3.33;1.00;;;;;;;-140.72;100.00;52727.72;5050567;28;20039;-71
2022/11/03 09:42:13;;;;;;;2.20;1.00;;;;;;;-140.72;100.00;52723.66;5050664;28;20108;-71
2022/11/03 09:44:38;;;;;;;4.15;1.20;;;;;;;-140.72;100.00;52723.66;5049917;28;20091;-72
2022/11/03 09:47:04;;;;;;;6.85;1.33;;;;;;;-140.72;100.00;52741.91;5050792;28;20024;-70
2022/11/03 09:49:32;;;;;;;5.18;0.98;;;;;;;-140.72;100.00;52764.25;5050854;28;20457;-71
2022/11/03 09:51:58;;;;;;;2.67;0.88;;;;;;;-140.72;100.00;52715.53;5049322;28;20047;-72
2022/11/03 09:54:25;;;;;;;4.82;1.55;;;;;;;-140.72;100.00;52758.16;5051058;28;20021;-72
2022/11/03 09:56:51;;;;;;;2.53;1.20;;;;;;;-140.72;100.00;52731.75;5050315;28;20035;-71
2022/11/03 09:59:21;;;;;;;4.03;1.00;;;;;;;-140.72;100.00;52770.31;5050078;28;20107;-70
2022/11/03 10:01:52;;;;;;;2.67;1.67;;;;;;;-140.72;100.00;52766.25;5038762;28;20436;-71
2022/11/03 10:04:21;;;;;;;1.55;0.73;;;;;;;-140.72;100.00;52768.28;5050327;28;20025;-73
2022/11/03 10:06:47;;;;;;;8.55;1.15;;;;;;;-140.72;100.00;52743.94;5049167;28;20032;-70
2022/11/03 10:09:16;;;;;;;2.35;1.13;;;;;;;-140.72;100.00;52739.88;5050412;28;20029;-72
2022/11/03 10:11:44;;;;;;;11.33;1.90;;;;;;;-140.72;100.00;52735.81;5049498;28;20032;-73
2022/11/03 10:14:12;;;;;;;2.92;1.10;;;;;;;-140.72;100.00;52705.38;5050207;28;20025;-73
2022/11/03 10:16:39;;;;;;;1.55;0.68;;;;;;;-140.72;100.00;52739.88;5049694;28;20382;-70
2022/11/03 10:19:04;;;;;;;3.22;1.20;;;;;;;-140.72;100.00;52721.63;5050138;28;20029;-73
2022/11/03 10:21:34;;;;;;;5.20;1.25;;;;;;;-140.72;100.00;52756.13;5050170;28;20108;-71
2022/11/03 10:23:59;;;;;;;1.58;0.65;;;;;;;-140.72;100.00;52707.41;5049968;28;20025;-71
2022/11/03 10:26:25;;;;;;;3.90;0.88;;;;;;;-140.72;100.00;52748.00;5049749;28;20063;-74
2022/11/03 10:29:08;;;;;;;3.55;0.90;;;;;;;-140.72;100.00;52752.06;5049799;28;20502;-72
2022/11/03 10:31:41;;;;;;;2.63;0.93;;;;;;;-140.72;100.00;52733.78;5049883;28;20029;-72
2022/11/03 10:34:33;;;;;;;5.10;1.23;;;;;;;-140.72;100.00;52743.94;5049108;28;20112;-74
2022/11/03 10:37:22;;;;;;;3.17;1.02;;;;;;;-140.72;100.00;52750.03;5049478;28;20021;-71
2022/11/03 10:39:50;;;;;;;2.38;0.93;;;;;;;-140.72;100.00;52727.72;5049142;28;20470;-73
2022/11/03 10:42:22;;;;;;;5.18;1.17;;;;;;;-140.72;100.00;52719.59;5049412;28;20096;-72
2022/11/03 10:45:09;;;;;;;2.05;0.88;;;;;;;-140.72;100.00;52723.66;5049334;28;20036;-71
2022/11/03 10:47:35;;;;;;;6.68;1.13;;;;;;;-140.72;100.00;52739.88;5038721;28;20041;-71
2022/11/03 10:50:24;;;;;;;2.13;0.73;;;;;;;-140.72;100.00;52774.38;5048978;28;20083;-72
2022/11/03 10:52:50;;;;;;;2.97;1.13;;;;;;;-140.72;100.00;52750.03;5049076;28;20031;-71
2022/11/03 10:55:17;;;;;;;2.95;1.45;;;;;;;-140.72;100.00;52723.66;5048772;28;20033;-74
2022/11/03 10:57:42;;;;;;;1.52;0.90;;;;;;;-140.72;100.00;52743.94;5049464;28;20458;-71
2022/11/03 11:00:16;;;;;;;2.78;1.02;;;;;;;-140.72;100.00;52723.66;5049759;28;20044;-71
2022/11/03 11:02:43;;;;;;;5.82;1.30;;;;;;;-140.72;100.00;52685.09;5048519;28;20032;-72
2022/11/03 11:05:17;;;;;;;4.55;0.98;;;;;;;-140.72;100.00;52713.50;5049230;28;20573;-73
2022/11/03 11:07:43;;;;;;;1.58;0.57;;;;;;;-140.72;100.00;52739.88;5049212;28;20025;-71
2022/11/03 11:10:18;;;;;;;2.17;1.23;;;;;;;-140.72;100.00;52691.19;5049100;28;20036;-71
2022/11/03 11:13:17;;;;;;;1.77;0.70;;;;;;;-140.72;100.00;52662.78;5049171;28;20028;-71
2022/11/03 11:16:00;;;;;;;1.85;0.95;;;;;;;-140.72;100.00;52719.59;5040466;28;20029;-71
2022/11/03 11:18:28;;;;;;;2.00;1.23;;;;;;;-140.72;100.00;52725.69;5049332;28;20028;-70
2022/11/03 11:20:58;;;;;;;4.07;1.17;;;;;;;-140.72;100.00;52723.66;5048736;28;20033;-71
2022/11/03 11:23:29;;;;;;;6.07;1.23;;;;;;;-140.72;100.00;52711.47;5048731;28;20048;-71
2022/11/03 11:26:10;;;;;;;1.65;0.85;;;;;;;-140.72;100.00;52674.94;5043574;28;20033;-72
2022/11/03 11:28:39;;;;;;;2.63;0.95;;;;;;;-140.72;100.00;52717.56;5043333;28;20032;-71
2022/11/03 11:31:26;;;;;;;1.08;0.52;;;;;;;-140.72;100.00;52683.06;5047742;28;20550;-71
2022/11/03 11:34:17;;;;;;;1.45;0.75;;;;;;;-140.72;100.00;52658.72;5047334;28;20029;-73
2022/11/03 11:36:43;;;;;;;0.95;0.47;;;;;;;-140.72;100.00;52713.50;5045147;28;20033;-71
2022/11/03 11:39:08;;;;;;;2.80;0.95;;;;;;;-140.72;100.00;52681.03;5048835;28;20047;-74
2022/11/03 11:42:04;;;;;;;0.63;0.50;;;;;;;-140.72;100.00;52679.00;5047747;28;20111;-71
2022/11/03 11:44:58;;;;;;;7.50;1.95;;;;;;;-140.72;100.00;52695.25;5047286;28;20086;-72